createdAt,value
2024-01-09T00:00:29.704Z,15.00
2024-01-09T00:01:29.659Z,15.00
2024-01-09T00:02:29.673Z,12.70
2024-01-09T00:03:29.692Z,13.90
2024-01-09T00:04:29.627Z,14.30
2024-01-09T00:05:29.697Z,14.90
2024-01-09T00:06:29.708Z,14.80
2024-01-09T00:07:29.653Z,15.00
2024-01-09T00:08:29.628Z,15.00
2024-01-09T00:09:29.590Z,14.10
2024-01-09T00:10:29.564Z,13.90
2024-01-09T00:11:29.593Z,14.60
2024-01-09T00:12:29.550Z,14.30
2024-01-09T00:13:29.527Z,15.10
2024-01-09T00:14:29.594Z,15.10
2024-01-09T00:15:29.525Z,16.10
2024-01-09T00:16:29.545Z,15.90
2024-01-09T00:17:29.560Z,14.70
2024-01-09T00:18:29.515Z,13.40
2024-01-09T00:19:31.179Z,15.10
2024-01-09T00:20:29.512Z,15.00
2024-01-09T00:21:29.480Z,14.30
2024-01-09T00:22:29.467Z,14.60
2024-01-09T00:23:29.464Z,13.90
2024-01-09T00:24:29.404Z,14.50
2024-01-09T00:25:29.389Z,13.60
2024-01-09T00:26:29.440Z,14.60
2024-01-09T00:27:29.437Z,14.70
2024-01-09T00:28:29.405Z,15.40
2024-01-09T00:29:29.403Z,15.10
2024-01-09T00:30:29.392Z,14.30
2024-01-09T00:31:29.350Z,16.40
2024-01-09T00:32:29.498Z,15.00
2024-01-09T00:33:29.571Z,14.70
2024-01-09T00:34:29.391Z,13.80
2024-01-09T00:35:29.337Z,15.00
2024-01-09T00:36:29.316Z,15.00
2024-01-09T00:37:29.264Z,14.60
2024-01-09T00:38:29.281Z,15.10
2024-01-09T00:39:29.253Z,15.10
2024-01-09T00:40:29.226Z,14.90
2024-01-09T00:41:29.272Z,15.60
2024-01-09T00:42:29.229Z,15.20
2024-01-09T00:43:29.232Z,14.90
2024-01-09T00:44:29.240Z,16.50
2024-01-09T00:45:29.180Z,15.70
2024-01-09T00:46:29.222Z,15.50
2024-01-09T00:47:29.290Z,14.10
2024-01-09T00:48:29.410Z,14.70
2024-01-09T00:49:29.191Z,14.40
2024-01-09T00:50:29.209Z,14.50
2024-01-09T00:51:29.106Z,15.80
2024-01-09T00:52:29.095Z,15.90
2024-01-09T00:53:29.153Z,15.80
2024-01-09T00:54:29.107Z,15.50
2024-01-09T00:55:29.094Z,16.10
2024-01-09T00:56:29.158Z,14.20
2024-01-09T00:57:29.045Z,14.90
2024-01-09T00:58:29.059Z,15.50
2024-01-09T00:59:29.063Z,15.00
2024-01-09T01:00:29.041Z,15.10
2024-01-09T01:01:29.039Z,15.20
2024-01-09T01:02:29.001Z,15.80
2024-01-09T01:03:29.046Z,15.20
2024-01-09T01:04:29.029Z,16.10
2024-01-09T01:05:29.083Z,15.80
2024-01-09T01:06:28.955Z,15.70
2024-01-09T01:07:28.950Z,15.40
2024-01-09T01:08:28.941Z,15.40
2024-01-09T01:09:28.910Z,15.10
2024-01-09T01:10:28.939Z,15.70
2024-01-09T01:11:28.957Z,16.00
2024-01-09T01:12:28.894Z,14.90
2024-01-09T01:13:28.893Z,15.10
2024-01-09T01:14:28.880Z,15.40
2024-01-09T01:15:28.865Z,14.60
2024-01-09T01:16:28.838Z,15.00
2024-01-09T01:17:28.897Z,15.50
2024-01-09T01:18:28.877Z,15.70
2024-01-09T01:19:28.856Z,15.60
2024-01-09T01:20:28.857Z,15.40
2024-01-09T01:21:28.804Z,15.70
2024-01-09T01:22:28.792Z,14.10
2024-01-09T01:23:28.829Z,14.70
2024-01-09T01:24:28.767Z,17.50
2024-01-09T01:25:28.757Z,15.20
2024-01-09T01:26:28.737Z,15.60
2024-01-09T01:27:28.741Z,14.60
2024-01-09T01:28:28.704Z,14.90
2024-01-09T01:29:28.813Z,15.00
2024-01-09T01:30:28.737Z,16.30
2024-01-09T01:31:28.690Z,16.10
2024-01-09T01:32:28.866Z,15.80
2024-01-09T01:33:28.774Z,15.40
2024-01-09T01:34:28.723Z,14.90
2024-01-09T01:35:28.707Z,14.70
2024-01-09T01:36:28.662Z,15.10
2024-01-09T01:37:28.631Z,16.40
2024-01-09T01:38:28.661Z,14.90
2024-01-09T01:39:28.598Z,15.50
2024-01-09T01:40:28.610Z,15.60
2024-01-09T01:41:28.693Z,15.70
2024-01-09T01:42:28.581Z,16.70
2024-01-09T01:43:28.545Z,15.20
2024-01-09T01:44:28.599Z,16.30
2024-01-09T01:45:28.527Z,15.40
2024-01-09T01:46:28.524Z,16.30
2024-01-09T01:47:28.698Z,16.50
2024-01-09T01:48:28.705Z,15.50
2024-01-09T01:49:28.593Z,15.80
2024-01-09T01:50:28.500Z,15.60
2024-01-09T01:51:28.468Z,16.80
2024-01-09T01:52:28.497Z,18.20
2024-01-09T01:53:28.479Z,15.90
2024-01-09T01:54:28.469Z,17.00
2024-01-09T01:55:28.443Z,16.00
2024-01-09T01:56:38.685Z,16.40
2024-01-09T01:57:28.409Z,16.90
2024-01-09T01:58:28.391Z,16.50
2024-01-09T01:59:28.483Z,16.30
2024-01-09T02:00:28.456Z,16.90
2024-01-09T02:01:28.394Z,17.50
2024-01-09T02:02:28.416Z,15.50
2024-01-09T02:03:28.375Z,18.00
2024-01-09T02:04:28.334Z,16.80
2024-01-09T02:05:28.416Z,17.80
2024-01-09T02:06:28.424Z,17.30
2024-01-09T02:07:28.317Z,16.90
2024-01-09T02:08:28.297Z,17.50
2024-01-09T02:09:28.293Z,17.20
2024-01-09T02:10:28.253Z,17.70
2024-01-09T02:11:28.341Z,20.20
2024-01-09T02:12:29.097Z,22.00
2024-01-09T02:13:28.262Z,20.30
2024-01-09T02:14:28.261Z,19.70
2024-01-09T02:15:28.219Z,17.50
2024-01-09T02:16:28.209Z,17.90
2024-01-09T02:17:32.070Z,16.20
2024-01-09T02:18:28.675Z,16.30
2024-01-09T02:19:29.143Z,17.90
2024-01-09T02:20:29.085Z,16.50
2024-01-09T02:21:28.185Z,16.70
2024-01-09T02:22:28.597Z,17.90
2024-01-09T02:23:28.266Z,16.80
2024-01-09T02:24:29.834Z,16.40
2024-01-09T02:25:29.093Z,16.10
2024-01-09T02:26:40.689Z,17.80
2024-01-09T02:27:29.202Z,17.00
2024-01-09T02:28:28.238Z,17.30
2024-01-09T02:29:28.112Z,16.90
2024-01-09T02:30:28.078Z,18.10
2024-01-09T02:31:28.048Z,18.10
2024-01-09T02:32:28.106Z,16.10
2024-01-09T02:33:28.172Z,18.30
2024-01-09T02:34:28.126Z,16.50
2024-01-09T02:35:28.054Z,17.00
2024-01-09T02:36:28.043Z,16.80
2024-01-09T02:37:27.968Z,18.20
2024-01-09T02:38:28.023Z,18.50
2024-01-09T02:39:27.957Z,18.00
2024-01-09T02:40:27.997Z,18.70
2024-01-09T02:41:28.000Z,18.40
2024-01-09T02:42:27.966Z,18.60
2024-01-09T02:43:27.910Z,18.90
2024-01-09T02:44:27.945Z,17.90
2024-01-09T02:45:27.911Z,19.10
2024-01-09T02:46:27.882Z,17.40
2024-01-09T02:47:27.974Z,18.90
2024-01-09T02:48:27.996Z,18.80
2024-01-09T02:49:27.858Z,17.30
2024-01-09T02:50:27.847Z,17.30
2024-01-09T02:51:27.866Z,18.40
2024-01-09T02:52:27.826Z,17.40
2024-01-09T02:53:27.860Z,18.30
2024-01-09T02:54:27.822Z,17.90
2024-01-09T02:55:27.782Z,17.00
2024-01-09T02:56:27.798Z,19.10
2024-01-09T02:57:27.775Z,17.90
2024-01-09T02:58:27.760Z,18.20
2024-01-09T02:59:27.824Z,17.20
2024-01-09T03:00:27.724Z,17.70
2024-01-09T03:01:27.865Z,16.80
2024-01-09T03:02:27.841Z,18.20
2024-01-09T03:03:27.838Z,18.60
2024-01-09T03:04:27.699Z,17.50
2024-01-09T03:05:27.794Z,18.90
2024-01-09T03:06:27.986Z,17.70
2024-01-09T03:07:27.806Z,17.70
2024-01-09T03:08:28.225Z,17.30
2024-01-09T03:09:27.653Z,18.20
2024-01-09T03:10:27.707Z,18.40
2024-01-09T03:11:27.641Z,18.70
2024-01-09T03:12:27.612Z,17.20
2024-01-09T03:13:27.605Z,19.10
2024-01-09T03:14:27.604Z,18.90
2024-01-09T03:15:27.628Z,17.50
2024-01-09T03:16:27.564Z,19.80
2024-01-09T03:17:27.675Z,19.30
2024-01-09T03:18:27.761Z,18.20
2024-01-09T03:19:27.597Z,18.00
2024-01-09T03:20:27.547Z,17.60
2024-01-09T03:21:27.540Z,18.30
2024-01-09T03:22:27.527Z,18.70
2024-01-09T03:23:27.541Z,17.50
2024-01-09T03:24:27.470Z,19.30
2024-01-09T03:25:27.481Z,17.70
2024-01-09T03:26:27.536Z,19.40
2024-01-09T03:27:27.456Z,17.60
2024-01-09T03:28:27.483Z,17.70
2024-01-09T03:29:27.447Z,18.60
2024-01-09T03:30:27.424Z,18.40
2024-01-09T03:31:27.438Z,17.60
2024-01-09T03:32:27.457Z,18.10
2024-01-09T03:33:27.658Z,18.50
2024-01-09T03:34:27.416Z,18.30
2024-01-09T03:35:27.366Z,17.90
2024-01-09T03:36:27.367Z,18.70
2024-01-09T03:37:27.373Z,18.60
2024-01-09T03:38:27.356Z,18.70
2024-01-09T03:39:27.370Z,19.50
2024-01-09T03:40:27.313Z,17.50
2024-01-09T03:41:27.317Z,18.80
2024-01-09T03:42:27.276Z,21.50
2024-01-09T03:43:27.301Z,22.10
2024-01-09T03:44:27.332Z,20.10
2024-01-09T03:45:27.279Z,19.90
2024-01-09T03:46:27.252Z,19.50
2024-01-09T03:47:27.252Z,19.20
2024-01-09T03:48:27.229Z,18.90
2024-01-09T03:49:27.240Z,20.10
2024-01-09T03:50:27.264Z,20.90
2024-01-09T03:51:27.235Z,22.00
2024-01-09T03:52:27.184Z,22.60
2024-01-09T03:53:27.197Z,21.40
2024-01-09T03:54:27.163Z,19.80
2024-01-09T03:55:27.161Z,19.20
2024-01-09T03:56:27.168Z,19.80
2024-01-09T03:57:27.160Z,20.50
2024-01-09T03:58:27.120Z,19.10
2024-01-09T03:59:27.125Z,18.80
2024-01-09T04:00:27.150Z,17.90
2024-01-09T04:01:27.092Z,18.40
2024-01-09T04:02:27.067Z,18.80
2024-01-09T04:03:27.104Z,19.00
2024-01-09T04:04:29.062Z,18.70
2024-01-09T04:05:27.108Z,19.30
2024-01-09T04:06:27.100Z,18.80
2024-01-09T04:07:27.040Z,18.50
2024-01-09T04:08:27.059Z,18.70
2024-01-09T04:09:27.024Z,19.20
2024-01-09T04:10:27.033Z,19.80
2024-01-09T04:11:26.980Z,19.50
2024-01-09T04:12:26.957Z,18.90
2024-01-09T04:13:26.957Z,18.80
2024-01-09T04:14:26.981Z,19.90
2024-01-09T04:15:26.992Z,19.20
2024-01-09T04:16:26.976Z,18.50
2024-01-09T04:17:27.015Z,20.00
2024-01-09T04:18:27.020Z,18.70
2024-01-09T04:19:26.931Z,20.20
2024-01-09T04:20:26.938Z,18.30
2024-01-09T04:21:26.900Z,18.80
2024-01-09T04:22:26.906Z,19.20
2024-01-09T04:23:26.858Z,19.20
2024-01-09T04:24:26.830Z,19.60
2024-01-09T04:25:26.818Z,18.90
2024-01-09T04:26:26.891Z,19.90
2024-01-09T04:27:26.838Z,20.00
2024-01-09T04:28:26.800Z,20.40
2024-01-09T04:29:26.820Z,20.50
2024-01-09T04:30:26.792Z,18.80
2024-01-09T04:31:26.756Z,20.10
2024-01-09T04:32:26.812Z,19.60
2024-01-09T04:33:26.966Z,19.80
2024-01-09T04:34:26.780Z,18.10
2024-01-09T04:35:26.749Z,19.60
2024-01-09T04:36:26.707Z,19.10
2024-01-09T04:37:26.686Z,18.90
2024-01-09T04:38:26.724Z,20.30
2024-01-09T04:39:26.709Z,18.60
2024-01-09T04:40:26.679Z,19.60
2024-01-09T04:41:26.680Z,19.40
2024-01-09T04:42:26.646Z,21.30
2024-01-09T04:43:26.658Z,20.10
2024-01-09T04:44:26.674Z,19.20
2024-01-09T04:45:26.699Z,18.60
2024-01-09T04:46:26.614Z,19.80
2024-01-09T04:47:26.642Z,19.90
2024-01-09T04:48:26.828Z,19.60
2024-01-09T04:49:26.576Z,19.70
2024-01-09T04:50:26.610Z,19.50
2024-01-09T04:51:26.600Z,19.00
2024-01-09T04:52:26.523Z,19.90
2024-01-09T04:53:26.543Z,21.40
2024-01-09T04:54:26.520Z,20.80
2024-01-09T04:55:26.508Z,19.10
2024-01-09T04:56:26.525Z,21.40
2024-01-09T04:57:26.521Z,25.30
2024-01-09T04:58:26.462Z,21.30
2024-01-09T04:59:26.764Z,22.90
2024-01-09T05:00:26.451Z,27.00
2024-01-09T05:01:26.437Z,25.50
2024-01-09T05:02:26.484Z,24.10
2024-01-09T05:03:26.484Z,23.00
2024-01-09T05:04:26.410Z,27.50
2024-01-09T05:05:26.585Z,24.50
2024-01-09T05:06:26.494Z,21.70
2024-01-09T05:07:26.383Z,19.50
2024-01-09T05:08:26.492Z,17.80
2024-01-09T05:09:26.362Z,19.40
2024-01-09T05:10:26.352Z,19.60
2024-01-09T05:11:26.408Z,20.40
2024-01-09T05:12:26.329Z,19.70
2024-01-09T05:13:26.304Z,22.10
2024-01-09T05:14:26.308Z,21.40
2024-01-09T05:15:26.282Z,20.40
2024-01-09T05:16:26.306Z,19.10
2024-01-09T05:17:26.367Z,19.20
2024-01-09T05:18:26.450Z,19.60
2024-01-09T05:19:26.463Z,18.70
2024-01-09T05:20:26.299Z,18.70
2024-01-09T05:21:26.224Z,17.30
2024-01-09T05:22:26.258Z,17.80
2024-01-09T05:23:26.286Z,17.80
2024-01-09T05:24:26.233Z,18.00
2024-01-09T05:25:26.192Z,19.30
2024-01-09T05:26:26.195Z,18.70
2024-01-09T05:27:26.147Z,19.40
2024-01-09T05:28:26.158Z,19.90
2024-01-09T05:29:26.211Z,19.70
2024-01-09T05:30:26.187Z,23.50
2024-01-09T05:31:27.306Z,22.40
2024-01-09T05:32:26.282Z,19.00
2024-01-09T05:33:26.282Z,18.80
2024-01-09T05:34:26.104Z,18.30
2024-01-09T05:35:26.084Z,19.40
2024-01-09T05:36:26.232Z,18.80
2024-01-09T05:37:26.071Z,19.50
2024-01-09T05:38:26.129Z,20.50
2024-01-09T05:39:26.032Z,18.80
2024-01-09T05:40:26.064Z,20.60
2024-01-09T05:41:26.032Z,18.30
2024-01-09T05:42:26.000Z,20.20
2024-01-09T05:43:26.007Z,20.40
2024-01-09T05:44:26.026Z,20.50
2024-01-09T05:45:25.956Z,19.00
2024-01-09T05:46:25.974Z,20.90
2024-01-09T05:47:26.031Z,19.10
2024-01-09T05:48:26.197Z,19.00
2024-01-09T05:49:26.001Z,18.80
2024-01-09T05:50:25.948Z,20.50
2024-01-09T05:51:25.908Z,20.70
2024-01-09T05:52:25.907Z,20.10
2024-01-09T05:53:25.898Z,17.20
2024-01-09T05:54:25.894Z,18.30
2024-01-09T05:55:25.854Z,19.00
2024-01-09T05:56:25.886Z,18.90
2024-01-09T05:57:25.830Z,18.90
2024-01-09T05:58:25.863Z,19.30
2024-01-09T05:59:25.908Z,19.40
2024-01-09T06:00:25.840Z,18.80
2024-01-09T06:01:25.841Z,19.50
2024-01-09T06:02:25.842Z,20.60
2024-01-09T06:03:25.809Z,20.50
2024-01-09T06:04:25.773Z,23.10
2024-01-09T06:05:25.869Z,21.50
2024-01-09T06:06:25.886Z,20.00
2024-01-09T06:07:25.755Z,20.90
2024-01-09T06:08:25.847Z,20.90
2024-01-09T06:09:25.710Z,31.10
2024-01-09T06:10:25.708Z,24.90
2024-01-09T06:11:25.751Z,22.10
2024-01-09T06:12:25.700Z,19.90
2024-01-09T06:13:25.677Z,20.00
2024-01-09T06:14:25.727Z,19.70
2024-01-09T06:15:25.644Z,20.40
2024-01-09T06:16:25.640Z,19.60
2024-01-09T06:17:25.739Z,20.20
2024-01-09T06:18:25.842Z,20.90
2024-01-09T06:19:26.754Z,19.00
2024-01-09T06:20:25.643Z,20.30
2024-01-09T06:21:25.604Z,22.50
2024-01-09T06:22:25.571Z,22.80
2024-01-09T06:23:25.614Z,20.10
2024-01-09T06:24:25.574Z,20.90
2024-01-09T06:25:25.581Z,19.90
2024-01-09T06:26:25.536Z,20.40
2024-01-09T06:27:25.518Z,19.20
2024-01-09T06:28:25.512Z,18.90
2024-01-09T06:29:25.541Z,20.10
2024-01-09T06:30:25.572Z,20.30
2024-01-09T06:31:25.491Z,20.90
2024-01-09T06:32:25.640Z,20.00
2024-01-09T06:33:25.616Z,19.90
2024-01-09T06:34:25.488Z,19.60
2024-01-09T06:35:25.459Z,18.50
2024-01-09T06:36:25.493Z,20.70
2024-01-09T06:37:25.405Z,19.50
2024-01-09T06:38:25.442Z,20.60
2024-01-09T06:39:25.406Z,18.60
2024-01-09T06:40:25.586Z,20.40
2024-01-09T06:41:25.416Z,21.00
2024-01-09T06:42:25.356Z,19.60
2024-01-09T06:43:25.358Z,18.40
2024-01-09T06:44:25.392Z,19.00
2024-01-09T06:45:25.334Z,19.60
2024-01-09T06:46:25.319Z,18.70
2024-01-09T06:47:25.386Z,19.30
2024-01-09T06:48:25.627Z,19.40
2024-01-09T06:49:25.421Z,19.30
2024-01-09T06:50:33.352Z,19.70
2024-01-09T06:51:26.352Z,19.30
2024-01-09T06:52:25.314Z,19.70
2024-01-09T06:53:25.338Z,19.60
2024-01-09T06:54:25.290Z,21.50
2024-01-09T06:55:25.311Z,17.80
2024-01-09T06:57:25.258Z,19.40
2024-01-09T06:58:25.277Z,19.10
2024-01-09T06:59:25.309Z,21.60
2024-01-09T07:00:25.209Z,17.70
2024-01-09T07:01:25.264Z,19.70
2024-01-09T07:02:25.251Z,19.50
2024-01-09T07:03:25.194Z,21.60
2024-01-09T07:04:25.296Z,19.40
2024-01-09T07:05:25.207Z,19.20
2024-01-09T07:06:25.220Z,20.60
2024-01-09T07:07:31.467Z,19.40
2024-01-09T07:08:26.132Z,19.90
2024-01-09T07:09:25.071Z,18.10
2024-01-09T07:10:25.065Z,20.00
2024-01-09T07:11:25.067Z,19.40
2024-01-09T07:12:25.051Z,19.60
2024-01-09T07:13:25.057Z,20.20
2024-01-09T07:14:25.104Z,20.60
2024-01-09T07:15:25.116Z,19.50
2024-01-09T07:16:25.006Z,20.00
2024-01-09T07:17:25.036Z,19.40
2024-01-09T07:18:25.106Z,21.00
2024-01-09T07:19:25.053Z,21.10
2024-01-09T07:20:25.215Z,25.10
2024-01-09T07:21:24.964Z,23.00
2024-01-09T07:22:24.938Z,21.60
2024-01-09T07:23:24.964Z,22.50
2024-01-09T07:24:24.903Z,20.20
2024-01-09T07:25:24.897Z,19.60
2024-01-09T07:26:24.961Z,22.40
2024-01-09T07:27:24.878Z,23.50
2024-01-09T07:28:24.914Z,24.40
2024-01-09T07:29:24.862Z,21.70
2024-01-09T07:30:24.893Z,19.30
2024-01-09T07:31:24.828Z,20.60
2024-01-09T07:32:25.092Z,22.20
2024-01-09T07:33:25.012Z,19.60
2024-01-09T07:34:24.942Z,20.90
2024-01-09T07:35:24.811Z,22.00
2024-01-09T07:36:24.774Z,20.20
2024-01-09T07:37:24.775Z,21.80
2024-01-09T07:38:24.793Z,21.20
2024-01-09T07:39:24.764Z,21.70
2024-01-09T07:40:24.758Z,22.30
2024-01-09T07:41:24.745Z,21.90
2024-01-09T07:42:24.718Z,21.70
2024-01-09T07:43:24.735Z,21.90
2024-01-09T07:44:24.766Z,21.20
2024-01-09T07:45:24.704Z,21.90
2024-01-09T07:46:24.697Z,22.20
2024-01-09T07:47:24.771Z,20.70
2024-01-09T07:48:25.032Z,19.80
2024-01-09T07:49:24.685Z,19.40
2024-01-09T07:50:24.683Z,18.80
2024-01-09T07:51:24.636Z,20.50
2024-01-09T07:52:24.612Z,19.70
2024-01-09T07:53:24.629Z,19.10
2024-01-09T07:54:24.608Z,19.90
2024-01-09T07:55:24.592Z,18.30
2024-01-09T07:56:24.631Z,20.80
2024-01-09T07:57:28.438Z,18.70
2024-01-09T07:58:25.564Z,18.10
2024-01-09T07:59:24.558Z,20.40
2024-01-09T08:00:24.555Z,19.00
2024-01-09T08:01:24.563Z,20.70
2024-01-09T08:02:24.550Z,19.00
2024-01-09T08:03:24.544Z,19.40
2024-01-09T08:04:24.483Z,20.50
2024-01-09T08:05:24.505Z,19.60
2024-01-09T08:06:24.749Z,18.70
2024-01-09T08:07:24.455Z,19.50
2024-01-09T08:08:24.496Z,18.50
2024-01-09T08:09:24.452Z,18.90
2024-01-09T08:10:24.425Z,18.60
2024-01-09T08:11:25.113Z,17.70
2024-01-09T08:12:24.395Z,19.30
2024-01-09T08:13:24.386Z,19.60
2024-01-09T08:14:24.447Z,20.70
2024-01-09T08:15:24.355Z,21.00
2024-01-09T08:16:24.390Z,18.20
2024-01-09T08:17:24.378Z,18.30
2024-01-09T08:18:24.494Z,18.10
2024-01-09T08:19:24.384Z,18.50
2024-01-09T08:20:24.348Z,17.70
2024-01-09T08:21:24.336Z,18.00
2024-01-09T08:22:24.284Z,19.30
2024-01-09T08:23:24.310Z,18.50
2024-01-09T08:24:24.279Z,19.10
2024-01-09T08:25:24.262Z,17.50
2024-01-09T08:26:24.255Z,17.80
2024-01-09T08:27:24.275Z,18.80
2024-01-09T08:28:24.266Z,19.10
2024-01-09T08:29:24.259Z,21.10
2024-01-09T08:30:24.276Z,20.10
2024-01-09T08:31:24.200Z,19.20
2024-01-09T08:32:24.427Z,19.80
2024-01-09T08:33:26.725Z,19.50
2024-01-09T08:34:24.280Z,17.70
2024-01-09T08:35:24.236Z,19.20
2024-01-09T08:36:24.154Z,20.50
2024-01-09T08:37:24.137Z,18.70
2024-01-09T08:38:24.145Z,18.50
2024-01-09T08:39:24.136Z,19.40
2024-01-09T08:40:24.107Z,18.90
2024-01-09T08:41:24.128Z,20.70
2024-01-09T08:42:24.071Z,18.70
2024-01-09T08:43:25.083Z,20.10
2024-01-09T08:44:24.101Z,18.50
2024-01-09T08:45:24.056Z,18.50
2024-01-09T08:46:24.028Z,19.30
2024-01-09T08:47:24.070Z,19.40
2024-01-09T08:48:24.394Z,18.60
2024-01-09T08:49:24.104Z,20.80
2024-01-09T08:50:24.041Z,18.60
2024-01-09T08:51:24.983Z,18.80
2024-01-09T08:52:23.984Z,16.90
2024-01-09T08:53:24.006Z,16.60
2024-01-09T08:54:23.975Z,18.40
2024-01-09T08:55:23.942Z,18.80
2024-01-09T08:56:24.007Z,21.70
2024-01-09T08:57:23.938Z,19.60
2024-01-09T08:58:23.930Z,18.40
2024-01-09T08:59:23.932Z,17.20
2024-01-09T09:00:23.884Z,19.70
2024-01-09T09:01:24.029Z,18.10
2024-01-09T09:02:23.954Z,19.50
2024-01-09T09:03:23.909Z,18.10
2024-01-09T09:04:23.861Z,17.80
2024-01-09T09:05:24.023Z,17.80
2024-01-09T09:06:23.908Z,18.90
2024-01-09T09:07:23.821Z,18.50
2024-01-09T09:08:23.875Z,18.50
2024-01-09T09:09:23.780Z,21.30
2024-01-09T09:10:23.775Z,24.20
2024-01-09T09:11:23.844Z,23.80
2024-01-09T09:12:23.768Z,24.10
2024-01-09T09:13:23.770Z,20.30
2024-01-09T09:14:23.779Z,20.70
2024-01-09T09:15:23.779Z,23.80
2024-01-09T09:16:23.718Z,21.40
2024-01-09T09:17:23.782Z,22.40
2024-01-09T09:18:23.871Z,24.10
2024-01-09T09:19:23.792Z,21.50
2024-01-09T09:20:23.704Z,20.00
2024-01-09T09:21:23.678Z,21.10
2024-01-09T09:22:23.673Z,20.90
2024-01-09T09:23:23.671Z,18.70
2024-01-09T09:24:23.647Z,20.00
2024-01-09T09:25:23.652Z,19.50
2024-01-09T09:26:23.738Z,20.20
2024-01-09T09:27:23.593Z,19.10
2024-01-09T09:28:23.638Z,18.70
2024-01-09T09:29:32.299Z,19.20
2024-01-09T09:30:24.669Z,19.20
2024-01-09T09:31:23.573Z,18.50
2024-01-09T09:32:23.566Z,19.90
2024-01-09T09:33:23.736Z,20.80
2024-01-09T09:34:23.545Z,20.20
2024-01-09T09:35:23.571Z,18.80
2024-01-09T09:36:23.540Z,20.70
2024-01-09T09:37:23.501Z,18.50
2024-01-09T09:38:23.514Z,20.30
2024-01-09T09:39:23.539Z,18.90
2024-01-09T09:40:23.472Z,18.00
2024-01-09T09:41:23.535Z,19.40
2024-01-09T09:42:23.448Z,17.90
2024-01-09T09:43:23.431Z,19.00
2024-01-09T09:44:23.491Z,19.80
2024-01-09T09:45:23.412Z,20.60
2024-01-09T09:46:23.421Z,19.20
2024-01-09T09:47:23.641Z,20.00
2024-01-09T09:48:23.525Z,18.90
2024-01-09T09:49:23.408Z,19.10
2024-01-09T09:50:23.364Z,17.00
2024-01-09T09:51:25.637Z,18.20
2024-01-09T09:52:23.343Z,21.10
2024-01-09T09:53:23.416Z,18.60
2024-01-09T09:54:23.374Z,20.40
2024-01-09T09:55:23.353Z,19.00
2024-01-09T09:56:23.546Z,18.00
2024-01-09T09:57:23.311Z,17.50
2024-01-09T09:58:23.264Z,19.40
2024-01-09T09:59:23.290Z,18.80
2024-01-09T10:00:23.263Z,20.50
2024-01-09T10:01:23.278Z,18.30
2024-01-09T10:02:25.766Z,18.80
2024-01-09T10:03:23.335Z,20.50
2024-01-09T10:04:23.231Z,18.70
2024-01-09T10:05:23.314Z,22.60
2024-01-09T10:06:23.286Z,20.00
2024-01-09T10:07:23.178Z,20.10
2024-01-09T10:08:23.204Z,17.50
2024-01-09T10:09:23.208Z,19.20
2024-01-09T10:10:23.145Z,19.00
2024-01-09T10:11:23.164Z,17.60
2024-01-09T10:12:23.107Z,16.50
2024-01-09T10:13:23.099Z,17.30
2024-01-09T10:14:23.121Z,19.00
2024-01-09T10:15:23.127Z,16.60
2024-01-09T10:16:23.084Z,18.30
2024-01-09T10:17:23.099Z,17.60
2024-01-09T10:18:23.279Z,18.50
2024-01-09T10:19:23.089Z,18.30
2024-01-09T10:20:26.223Z,18.40
2024-01-09T10:21:23.026Z,16.10
2024-01-09T10:22:23.022Z,16.80
2024-01-09T10:23:23.055Z,15.70
2024-01-09T10:24:23.006Z,17.40
2024-01-09T10:25:22.987Z,17.70
2024-01-09T10:26:23.105Z,15.80
2024-01-09T10:27:22.958Z,16.80
2024-01-09T10:28:22.972Z,17.00
2024-01-09T10:29:23.027Z,17.90
2024-01-09T10:30:23.055Z,16.50
2024-01-09T10:31:22.910Z,18.80
2024-01-09T10:32:22.994Z,21.00
2024-01-09T10:33:23.086Z,23.00
2024-01-09T10:34:22.966Z,21.20
2024-01-09T10:35:22.904Z,22.30
2024-01-09T10:36:22.863Z,24.40
2024-01-09T10:37:22.849Z,19.90
2024-01-09T10:38:22.908Z,18.90
2024-01-09T10:39:23.158Z,16.20
2024-01-09T10:40:22.847Z,16.70
2024-01-09T10:41:22.858Z,16.80
2024-01-09T10:42:22.781Z,17.70
2024-01-09T10:43:22.775Z,16.90
2024-01-09T10:44:22.832Z,16.90
2024-01-09T10:45:22.795Z,16.50
2024-01-09T10:46:22.776Z,16.40
2024-01-09T10:47:22.856Z,16.50
2024-01-09T10:48:22.878Z,16.70
2024-01-09T10:49:23.703Z,15.80
2024-01-09T10:50:22.901Z,17.70
2024-01-09T10:51:22.703Z,16.20
2024-01-09T10:52:22.709Z,15.10
2024-01-09T10:53:22.694Z,16.60
2024-01-09T10:54:22.667Z,16.80
2024-01-09T10:55:22.652Z,18.70
2024-01-09T10:56:22.701Z,16.80
2024-01-09T10:57:22.640Z,17.10
2024-01-09T10:58:22.648Z,16.80
2024-01-09T10:59:22.620Z,18.50
2024-01-09T11:00:22.602Z,19.90
2024-01-09T11:01:22.708Z,18.90
2024-01-09T11:02:22.670Z,18.20
2024-01-09T11:03:22.648Z,18.20
2024-01-09T11:04:22.552Z,19.90
2024-01-09T11:05:22.609Z,19.10
2024-01-09T11:06:22.592Z,19.80
2024-01-09T11:07:22.526Z,20.40
2024-01-09T11:08:22.546Z,20.10
2024-01-09T11:09:22.537Z,19.30
2024-01-09T11:10:22.485Z,19.80
2024-01-09T11:11:22.525Z,17.40
2024-01-09T11:12:22.475Z,18.10
2024-01-09T11:13:22.672Z,17.70
2024-01-09T11:14:22.494Z,16.80
2024-01-09T11:15:22.484Z,16.60
2024-01-09T11:16:22.415Z,16.70
2024-01-09T11:17:22.615Z,16.10
2024-01-09T11:18:22.515Z,16.60
2024-01-09T11:19:22.428Z,17.30
2024-01-09T11:20:22.468Z,17.60
2024-01-09T11:21:22.398Z,17.50
2024-01-09T11:22:22.356Z,17.60
2024-01-09T11:23:22.408Z,15.90
2024-01-09T11:24:22.364Z,16.70
2024-01-09T11:25:22.345Z,16.70
2024-01-09T11:26:22.335Z,17.90
2024-01-09T11:27:22.328Z,17.40
2024-01-09T11:28:22.348Z,16.90
2024-01-09T11:29:22.328Z,16.10
2024-01-09T11:30:22.384Z,16.10
2024-01-09T11:31:22.645Z,17.20
2024-01-09T11:32:22.335Z,16.90
2024-01-09T11:33:22.449Z,15.50
2024-01-09T11:34:22.319Z,16.00
2024-01-09T11:35:22.278Z,16.30
2024-01-09T11:36:22.256Z,17.60
2024-01-09T11:37:22.213Z,17.90
2024-01-09T11:38:22.303Z,17.30
2024-01-09T11:39:22.168Z,16.20
2024-01-09T11:40:22.157Z,15.00
2024-01-09T11:41:22.262Z,15.30
2024-01-09T11:42:22.149Z,17.50
2024-01-09T11:43:22.142Z,16.60
2024-01-09T11:44:22.227Z,15.80
2024-01-09T11:45:22.106Z,17.00
2024-01-09T11:46:22.107Z,17.90
2024-01-09T11:47:22.175Z,15.10
2024-01-09T11:48:22.286Z,16.00
2024-01-09T11:49:22.239Z,18.20
2024-01-09T11:50:22.176Z,17.10
2024-01-09T11:51:22.074Z,16.70
2024-01-09T11:52:22.031Z,16.00
2024-01-09T11:53:22.058Z,15.50
2024-01-09T11:54:22.021Z,16.00
2024-01-09T11:55:22.011Z,16.60
2024-01-09T11:56:22.042Z,17.90
2024-01-09T11:57:30.676Z,16.70
2024-01-09T11:58:21.956Z,16.10
2024-01-09T11:59:22.031Z,16.00
2024-01-09T12:00:22.026Z,16.60
2024-01-09T12:01:22.052Z,15.50
2024-01-09T12:02:21.990Z,16.30
2024-01-09T12:03:21.928Z,16.80
2024-01-09T12:04:21.940Z,15.60
2024-01-09T12:05:21.931Z,16.00
2024-01-09T12:06:21.939Z,16.40
2024-01-09T12:07:21.956Z,16.30
2024-01-09T12:08:21.930Z,15.70
2024-01-09T12:09:21.855Z,17.40
2024-01-09T12:10:30.527Z,16.80
2024-01-09T12:11:22.948Z,16.90
2024-01-09T12:12:21.835Z,16.30
2024-01-09T12:13:21.830Z,17.80
2024-01-09T12:14:21.827Z,17.30
2024-01-09T12:15:21.803Z,14.70
2024-01-09T12:16:21.810Z,15.00
2024-01-09T12:17:21.851Z,14.40
2024-01-09T12:18:21.799Z,16.00
2024-01-09T12:19:21.874Z,16.00
2024-01-09T12:20:21.755Z,15.30
2024-01-09T12:21:21.710Z,15.20
2024-01-09T12:22:21.733Z,15.30
2024-01-09T12:23:21.713Z,15.10
2024-01-09T12:24:24.397Z,16.20
2024-01-09T12:25:21.674Z,15.20
2024-01-09T12:26:21.715Z,16.00
2024-01-09T12:27:21.652Z,15.00
2024-01-09T12:28:21.650Z,16.10
2024-01-09T12:29:21.666Z,14.30
2024-01-09T12:30:21.780Z,15.40
2024-01-09T12:31:21.694Z,15.50
2024-01-09T12:32:21.630Z,15.70
2024-01-09T12:33:21.834Z,16.00
2024-01-09T12:34:21.798Z,15.00
2024-01-09T12:35:21.611Z,15.30
2024-01-09T12:36:21.549Z,15.30
2024-01-09T12:37:21.559Z,15.30
2024-01-09T12:38:21.554Z,14.90
2024-01-09T12:39:21.614Z,14.30
2024-01-09T12:40:21.512Z,15.20
2024-01-09T12:41:21.608Z,14.90
2024-01-09T12:42:21.512Z,15.10
2024-01-09T12:43:21.469Z,14.60
2024-01-09T12:44:21.560Z,15.30
2024-01-09T12:45:21.453Z,16.00
2024-01-09T12:46:21.483Z,16.10
2024-01-09T12:47:21.471Z,14.20
2024-01-09T12:48:21.544Z,14.10
2024-01-09T12:49:21.517Z,14.70
2024-01-09T12:50:21.474Z,14.50
2024-01-09T12:51:21.463Z,16.20
2024-01-09T12:52:21.395Z,15.60
2024-01-09T12:53:21.456Z,13.50